sensor_id;sensor_type;location;lat;lon;timestamp;P1;durP1;ratioP1;P2;durP2;ratioP2
32323;SDS011;25666;44.350;9.222;2023-12-20T00:00:02;24.13;;;13.70;;
32323;SDS011;25666;44.350;9.222;2023-12-20T00:02:30;35.00;;;15.30;;
32323;SDS011;25666;44.350;9.222;2023-12-20T00:04:55;28.60;;;14.10;;
32323;SDS011;25666;44.350;9.222;2023-12-20T00:07:21;32.38;;;16.77;;
32323;SDS011;25666;44.350;9.222;2023-12-20T00:09:46;28.65;;;16.23;;
32323;SDS011;25666;44.350;9.222;2023-12-20T00:12:12;31.42;;;14.95;;
32323;SDS011;25666;44.350;9.222;2023-12-20T00:14:38;25.83;;;14.25;;
32323;SDS011;25666;44.350;9.222;2023-12-20T00:17:04;28.40;;;15.80;;
32323;SDS011;25666;44.350;9.222;2023-12-20T00:19:29;30.33;;;15.05;;
32323;SDS011;25666;44.350;9.222;2023-12-20T00:21:58;33.22;;;17.50;;
32323;SDS011;25666;44.350;9.222;2023-12-20T00:24:24;34.15;;;15.82;;
32323;SDS011;25666;44.350;9.222;2023-12-20T00:26:50;34.95;;;17.23;;
32323;SDS011;25666;44.350;9.222;2023-12-20T00:29:16;33.80;;;16.27;;
32323;SDS011;25666;44.350;9.222;2023-12-20T00:31:42;37.40;;;16.98;;
32323;SDS011;25666;44.350;9.222;2023-12-20T00:34:08;32.30;;;16.35;;
32323;SDS011;25666;44.350;9.222;2023-12-20T00:36:33;26.17;;;15.18;;
32323;SDS011;25666;44.350;9.222;2023-12-20T00:39:02;29.48;;;14.25;;
32323;SDS011;25666;44.350;9.222;2023-12-20T00:41:28;31.05;;;15.55;;
32323;SDS011;25666;44.350;9.222;2023-12-20T00:43:54;29.38;;;15.27;;
32323;SDS011;25666;44.350;9.222;2023-12-20T00:46:22;28.58;;;14.32;;
32323;SDS011;25666;44.350;9.222;2023-12-20T00:48:47;26.80;;;15.45;;
32323;SDS011;25666;44.350;9.222;2023-12-20T00:51:13;24.38;;;14.07;;
32323;SDS011;25666;44.350;9.222;2023-12-20T00:53:39;25.52;;;14.27;;
32323;SDS011;25666;44.350;9.222;2023-12-20T00:56:04;32.00;;;14.35;;
32323;SDS011;25666;44.350;9.222;2023-12-20T00:58:30;26.25;;;13.85;;
32323;SDS011;25666;44.350;9.222;2023-12-20T01:00:55;28.35;;;14.10;;
32323;SDS011;25666;44.350;9.222;2023-12-20T01:03:21;23.80;;;12.73;;
32323;SDS011;25666;44.350;9.222;2023-12-20T01:05:46;23.50;;;12.32;;
32323;SDS011;25666;44.350;9.222;2023-12-20T01:08:12;25.08;;;13.30;;
32323;SDS011;25666;44.350;9.222;2023-12-20T01:10:38;21.65;;;13.20;;
32323;SDS011;25666;44.350;9.222;2023-12-20T01:13:03;26.33;;;14.43;;
32323;SDS011;25666;44.350;9.222;2023-12-20T01:15:29;26.30;;;13.30;;
32323;SDS011;25666;44.350;9.222;2023-12-20T01:17:54;21.48;;;12.05;;
32323;SDS011;25666;44.350;9.222;2023-12-20T01:20:21;24.02;;;13.00;;
32323;SDS011;25666;44.350;9.222;2023-12-20T01:22:48;21.58;;;11.82;;
32323;SDS011;25666;44.350;9.222;2023-12-20T01:25:14;20.15;;;11.50;;
32323;SDS011;25666;44.350;9.222;2023-12-20T01:27:39;18.50;;;10.00;;
32323;SDS011;25666;44.350;9.222;2023-12-20T01:30:05;18.52;;;10.70;;
32323;SDS011;25666;44.350;9.222;2023-12-20T01:32:31;22.80;;;12.50;;
32323;SDS011;25666;44.350;9.222;2023-12-20T01:34:56;20.73;;;11.77;;
32323;SDS011;25666;44.350;9.222;2023-12-20T01:37:22;19.23;;;10.40;;
32323;SDS011;25666;44.350;9.222;2023-12-20T01:39:50;22.58;;;12.00;;
32323;SDS011;25666;44.350;9.222;2023-12-20T01:42:16;21.05;;;12.07;;
32323;SDS011;25666;44.350;9.222;2023-12-20T01:44:41;21.50;;;11.13;;
32323;SDS011;25666;44.350;9.222;2023-12-20T01:47:08;19.48;;;11.95;;
32323;SDS011;25666;44.350;9.222;2023-12-20T01:49:34;23.95;;;12.95;;
32323;SDS011;25666;44.350;9.222;2023-12-20T01:52:00;24.38;;;12.88;;
32323;SDS011;25666;44.350;9.222;2023-12-20T01:54:26;19.13;;;10.48;;
32323;SDS011;25666;44.350;9.222;2023-12-20T01:56:52;20.48;;;11.40;;
32323;SDS011;25666;44.350;9.222;2023-12-20T01:59:18;20.02;;;10.60;;
32323;SDS011;25666;44.350;9.222;2023-12-20T02:01:45;22.92;;;12.43;;
32323;SDS011;25666;44.350;9.222;2023-12-20T02:04:10;21.20;;;11.82;;
32323;SDS011;25666;44.350;9.222;2023-12-20T02:06:36;25.45;;;13.70;;
32323;SDS011;25666;44.350;9.222;2023-12-20T02:09:05;29.33;;;14.98;;
32323;SDS011;25666;44.350;9.222;2023-12-20T02:11:32;27.42;;;14.98;;
32323;SDS011;25666;44.350;9.222;2023-12-20T02:13:58;31.02;;;14.50;;
32323;SDS011;25666;44.350;9.222;2023-12-20T02:16:24;22.50;;;13.10;;
32323;SDS011;25666;44.350;9.222;2023-12-20T02:18:49;25.83;;;12.98;;
32323;SDS011;25666;44.350;9.222;2023-12-20T02:21:15;22.20;;;12.25;;
32323;SDS011;25666;44.350;9.222;2023-12-20T02:23:41;22.25;;;12.55;;
32323;SDS011;25666;44.350;9.222;2023-12-20T02:26:06;23.42;;;13.48;;
32323;SDS011;25666;44.350;9.222;2023-12-20T02:28:32;25.33;;;14.00;;
32323;SDS011;25666;44.350;9.222;2023-12-20T02:30:59;23.27;;;13.10;;
32323;SDS011;25666;44.350;9.222;2023-12-20T02:33:25;24.88;;;13.52;;
32323;SDS011;25666;44.350;9.222;2023-12-20T02:35:50;27.50;;;13.80;;
32323;SDS011;25666;44.350;9.222;2023-12-20T02:38:17;29.45;;;15.25;;
32323;SDS011;25666;44.350;9.222;2023-12-20T02:40:43;23.67;;;14.20;;
32323;SDS011;25666;44.350;9.222;2023-12-20T02:43:08;28.83;;;15.00;;
32323;SDS011;25666;44.350;9.222;2023-12-20T02:45:34;25.23;;;13.70;;
32323;SDS011;25666;44.350;9.222;2023-12-20T02:47:59;20.67;;;12.38;;
32323;SDS011;25666;44.350;9.222;2023-12-20T02:50:25;19.60;;;10.30;;
32323;SDS011;25666;44.350;9.222;2023-12-20T02:52:50;17.67;;;9.73;;
32323;SDS011;25666;44.350;9.222;2023-12-20T02:55:16;18.73;;;10.00;;
32323;SDS011;25666;44.350;9.222;2023-12-20T02:57:41;15.05;;;9.23;;
32323;SDS011;25666;44.350;9.222;2023-12-20T03:00:10;15.00;;;8.27;;
32323;SDS011;25666;44.350;9.222;2023-12-20T03:02:36;14.95;;;8.32;;
32323;SDS011;25666;44.350;9.222;2023-12-20T03:05:02;14.10;;;8.40;;
32323;SDS011;25666;44.350;9.222;2023-12-20T03:07:28;17.55;;;9.15;;
32323;SDS011;25666;44.350;9.222;2023-12-20T03:09:53;16.63;;;9.02;;
32323;SDS011;25666;44.350;9.222;2023-12-20T03:12:19;13.65;;;8.65;;
32323;SDS011;25666;44.350;9.222;2023-12-20T03:14:45;12.95;;;8.02;;
32323;SDS011;25666;44.350;9.222;2023-12-20T03:17:10;18.65;;;9.68;;
32323;SDS011;25666;44.350;9.222;2023-12-20T03:19:36;15.73;;;9.45;;
32323;SDS011;25666;44.350;9.222;2023-12-20T03:22:01;18.90;;;10.60;;
32323;SDS011;25666;44.350;9.222;2023-12-20T03:24:27;21.98;;;11.65;;
32323;SDS011;25666;44.350;9.222;2023-12-20T03:26:53;17.63;;;10.10;;
32323;SDS011;25666;44.350;9.222;2023-12-20T03:29:18;14.18;;;8.98;;
32323;SDS011;25666;44.350;9.222;2023-12-20T03:31:44;19.83;;;10.45;;
32323;SDS011;25666;44.350;9.222;2023-12-20T03:34:09;18.85;;;10.48;;
32323;SDS011;25666;44.350;9.222;2023-12-20T03:36:35;14.77;;;9.02;;
32323;SDS011;25666;44.350;9.222;2023-12-20T03:39:01;15.48;;;8.68;;
32323;SDS011;25666;44.350;9.222;2023-12-20T03:41:26;15.77;;;8.50;;
32323;SDS011;25666;44.350;9.222;2023-12-20T03:43:52;17.40;;;8.80;;
32323;SDS011;25666;44.350;9.222;2023-12-20T03:46:17;12.13;;;8.07;;
32323;SDS011;25666;44.350;9.222;2023-12-20T03:48:43;17.40;;;8.05;;
32323;SDS011;25666;44.350;9.222;2023-12-20T03:51:08;11.55;;;7.53;;
32323;SDS011;25666;44.350;9.222;2023-12-20T03:53:34;11.63;;;7.05;;
32323;SDS011;25666;44.350;9.222;2023-12-20T03:55:59;12.77;;;7.10;;
32323;SDS011;25666;44.350;9.222;2023-12-20T03:58:25;15.63;;;8.18;;
32323;SDS011;25666;44.350;9.222;2023-12-20T04:00:50;15.88;;;9.25;;
32323;SDS011;25666;44.350;9.222;2023-12-20T04:03:16;14.05;;;6.68;;
32323;SDS011;25666;44.350;9.222;2023-12-20T04:05:41;11.18;;;6.60;;
32323;SDS011;25666;44.350;9.222;2023-12-20T04:08:07;13.52;;;7.57;;
32323;SDS011;25666;44.350;9.222;2023-12-20T04:10:33;13.35;;;7.10;;
32323;SDS011;25666;44.350;9.222;2023-12-20T04:12:58;14.55;;;8.25;;
32323;SDS011;25666;44.350;9.222;2023-12-20T04:15:24;14.10;;;8.43;;
32323;SDS011;25666;44.350;9.222;2023-12-20T04:17:49;11.52;;;7.72;;
32323;SDS011;25666;44.350;9.222;2023-12-20T04:20:15;14.45;;;7.95;;
32323;SDS011;25666;44.350;9.222;2023-12-20T04:22:40;11.45;;;7.13;;
32323;SDS011;25666;44.350;9.222;2023-12-20T04:25:07;11.15;;;7.05;;
32323;SDS011;25666;44.350;9.222;2023-12-20T04:27:33;14.45;;;7.53;;
32323;SDS011;25666;44.350;9.222;2023-12-20T04:29:58;15.27;;;6.25;;
32323;SDS011;25666;44.350;9.222;2023-12-20T04:32:24;13.70;;;6.95;;
32323;SDS011;25666;44.350;9.222;2023-12-20T04:34:49;10.02;;;6.50;;
32323;SDS011;25666;44.350;9.222;2023-12-20T04:37:15;16.65;;;6.57;;
32323;SDS011;25666;44.350;9.222;2023-12-20T04:39:40;10.52;;;6.43;;
32323;SDS011;25666;44.350;9.222;2023-12-20T04:42:06;11.88;;;6.35;;
32323;SDS011;25666;44.350;9.222;2023-12-20T04:44:32;12.10;;;6.10;;
32323;SDS011;25666;44.350;9.222;2023-12-20T04:46:57;13.27;;;6.40;;
32323;SDS011;25666;44.350;9.222;2023-12-20T04:49:23;14.60;;;6.38;;
32323;SDS011;25666;44.350;9.222;2023-12-20T04:51:48;14.00;;;5.28;;
32323;SDS011;25666;44.350;9.222;2023-12-20T04:54:15;11.85;;;5.60;;
32323;SDS011;25666;44.350;9.222;2023-12-20T04:56:41;9.50;;;5.10;;
32323;SDS011;25666;44.350;9.222;2023-12-20T04:59:07;12.43;;;6.00;;
32323;SDS011;25666;44.350;9.222;2023-12-20T05:01:32;8.70;;;5.10;;
32323;SDS011;25666;44.350;9.222;2023-12-20T05:03:57;12.63;;;6.07;;
32323;SDS011;25666;44.350;9.222;2023-12-20T05:06:23;12.50;;;6.90;;
32323;SDS011;25666;44.350;9.222;2023-12-20T05:08:49;12.98;;;7.40;;
32323;SDS011;25666;44.350;9.222;2023-12-20T05:11:15;57.83;;;20.77;;
32323;SDS011;25666;44.350;9.222;2023-12-20T05:13:41;20.92;;;8.48;;
32323;SDS011;25666;44.350;9.222;2023-12-20T05:16:07;34.42;;;12.85;;
32323;SDS011;25666;44.350;9.222;2023-12-20T05:18:34;27.10;;;11.48;;
32323;SDS011;25666;44.350;9.222;2023-12-20T05:20:59;12.18;;;7.10;;
32323;SDS011;25666;44.350;9.222;2023-12-20T05:23:25;13.63;;;6.35;;
32323;SDS011;25666;44.350;9.222;2023-12-20T05:25:50;11.93;;;7.25;;
32323;SDS011;25666;44.350;9.222;2023-12-20T05:28:16;16.40;;;7.40;;
32323;SDS011;25666;44.350;9.222;2023-12-20T05:30:42;11.68;;;6.18;;
32323;SDS011;25666;44.350;9.222;2023-12-20T05:33:08;16.55;;;7.65;;
32323;SDS011;25666;44.350;9.222;2023-12-20T05:35:34;14.25;;;7.10;;
32323;SDS011;25666;44.350;9.222;2023-12-20T05:38:00;14.05;;;7.05;;
32323;SDS011;25666;44.350;9.222;2023-12-20T05:40:25;12.13;;;6.82;;
32323;SDS011;25666;44.350;9.222;2023-12-20T05:42:51;12.30;;;6.53;;
32323;SDS011;25666;44.350;9.222;2023-12-20T05:45:16;8.05;;;5.53;;
32323;SDS011;25666;44.350;9.222;2023-12-20T05:47:42;12.05;;;6.22;;
32323;SDS011;25666;44.350;9.222;2023-12-20T05:50:07;8.85;;;5.68;;
32323;SDS011;25666;44.350;9.222;2023-12-20T05:52:34;11.68;;;6.00;;
32323;SDS011;25666;44.350;9.222;2023-12-20T05:54:59;12.80;;;6.10;;
32323;SDS011;25666;44.350;9.222;2023-12-20T05:57:26;10.73;;;5.57;;
32323;SDS011;25666;44.350;9.222;2023-12-20T05:59:52;7.68;;;5.90;;
32323;SDS011;25666;44.350;9.222;2023-12-20T06:02:18;12.82;;;6.28;;
32323;SDS011;25666;44.350;9.222;2023-12-20T06:04:44;11.80;;;5.90;;
32323;SDS011;25666;44.350;9.222;2023-12-20T06:07:12;9.10;;;5.18;;
32323;SDS011;25666;44.350;9.222;2023-12-20T06:09:39;14.02;;;6.28;;
32323;SDS011;25666;44.350;9.222;2023-12-20T06:12:04;9.57;;;5.65;;
32323;SDS011;25666;44.350;9.222;2023-12-20T06:14:31;11.18;;;5.95;;
32323;SDS011;25666;44.350;9.222;2023-12-20T06:16:57;10.60;;;5.65;;
32323;SDS011;25666;44.350;9.222;2023-12-20T06:19:22;9.25;;;6.18;;
32323;SDS011;25666;44.350;9.222;2023-12-20T06:21:48;14.32;;;6.00;;
32323;SDS011;25666;44.350;9.222;2023-12-20T06:24:14;13.63;;;6.00;;
32323;SDS011;25666;44.350;9.222;2023-12-20T06:26:39;10.43;;;5.85;;
32323;SDS011;25666;44.350;9.222;2023-12-20T06:29:05;8.10;;;5.63;;
32323;SDS011;25666;44.350;9.222;2023-12-20T06:31:30;8.27;;;5.35;;
32323;SDS011;25666;44.350;9.222;2023-12-20T06:33:58;11.02;;;5.38;;
32323;SDS011;25666;44.350;9.222;2023-12-20T06:36:25;7.00;;;5.22;;
32323;SDS011;25666;44.350;9.222;2023-12-20T06:38:51;16.10;;;7.55;;
32323;SDS011;25666;44.350;9.222;2023-12-20T06:41:16;12.73;;;7.95;;
32323;SDS011;25666;44.350;9.222;2023-12-20T06:43:42;14.07;;;7.13;;
32323;SDS011;25666;44.350;9.222;2023-12-20T06:46:08;15.27;;;8.02;;
32323;SDS011;25666;44.350;9.222;2023-12-20T06:48:35;15.13;;;6.90;;
32323;SDS011;25666;44.350;9.222;2023-12-20T06:51:00;11.07;;;6.70;;
32323;SDS011;25666;44.350;9.222;2023-12-20T06:53:29;13.73;;;7.18;;
32323;SDS011;25666;44.350;9.222;2023-12-20T06:55:55;12.40;;;6.50;;
32323;SDS011;25666;44.350;9.222;2023-12-20T06:58:22;12.38;;;7.10;;
32323;SDS011;25666;44.350;9.222;2023-12-20T07:00:48;12.68;;;6.22;;
32323;SDS011;25666;44.350;9.222;2023-12-20T07:03:13;11.50;;;6.75;;
32323;SDS011;25666;44.350;9.222;2023-12-20T07:05:39;14.32;;;6.43;;
32323;SDS011;25666;44.350;9.222;2023-12-20T07:08:06;13.23;;;6.70;;
32323;SDS011;25666;44.350;9.222;2023-12-20T07:10:31;11.23;;;6.45;;
32323;SDS011;25666;44.350;9.222;2023-12-20T07:12:57;12.38;;;7.60;;
32323;SDS011;25666;44.350;9.222;2023-12-20T07:15:22;12.60;;;6.60;;
32323;SDS011;25666;44.350;9.222;2023-12-20T07:17:48;11.60;;;7.00;;
32323;SDS011;25666;44.350;9.222;2023-12-20T07:20:14;11.63;;;6.18;;
32323;SDS011;25666;44.350;9.222;2023-12-20T07:22:39;12.40;;;7.03;;
32323;SDS011;25666;44.350;9.222;2023-12-20T07:25:05;13.25;;;6.57;;
32323;SDS011;25666;44.350;9.222;2023-12-20T07:27:31;15.63;;;7.70;;
32323;SDS011;25666;44.350;9.222;2023-12-20T07:29:56;13.57;;;7.75;;
32323;SDS011;25666;44.350;9.222;2023-12-20T07:32:22;14.85;;;8.25;;
32323;SDS011;25666;44.350;9.222;2023-12-20T07:34:47;11.10;;;6.32;;
32323;SDS011;25666;44.350;9.222;2023-12-20T07:37:13;13.02;;;7.22;;
32323;SDS011;25666;44.350;9.222;2023-12-20T07:39:39;14.82;;;7.50;;
32323;SDS011;25666;44.350;9.222;2023-12-20T07:42:05;15.32;;;7.40;;
32323;SDS011;25666;44.350;9.222;2023-12-20T07:44:31;14.48;;;6.65;;
32323;SDS011;25666;44.350;9.222;2023-12-20T07:46:57;19.48;;;8.13;;
32323;SDS011;25666;44.350;9.222;2023-12-20T07:49:23;14.63;;;7.22;;
32323;SDS011;25666;44.350;9.222;2023-12-20T07:51:48;12.73;;;7.10;;
32323;SDS011;25666;44.350;9.222;2023-12-20T07:54:15;11.77;;;6.32;;
32323;SDS011;25666;44.350;9.222;2023-12-20T07:56:41;11.70;;;6.90;;
32323;SDS011;25666;44.350;9.222;2023-12-20T07:59:06;11.88;;;6.93;;
32323;SDS011;25666;44.350;9.222;2023-12-20T08:01:32;12.45;;;6.07;;
32323;SDS011;25666;44.350;9.222;2023-12-20T08:03:58;15.43;;;6.53;;
32323;SDS011;25666;44.350;9.222;2023-12-20T08:06:23;13.00;;;5.70;;
32323;SDS011;25666;44.350;9.222;2023-12-20T08:08:49;12.68;;;6.75;;
32323;SDS011;25666;44.350;9.222;2023-12-20T08:11:15;13.55;;;7.53;;
32323;SDS011;25666;44.350;9.222;2023-12-20T08:13:40;14.57;;;6.63;;
32323;SDS011;25666;44.350;9.222;2023-12-20T08:16:06;15.05;;;7.03;;
32323;SDS011;25666;44.350;9.222;2023-12-20T08:18:31;22.98;;;8.52;;
32323;SDS011;25666;44.350;9.222;2023-12-20T08:20:57;17.65;;;7.13;;
32323;SDS011;25666;44.350;9.222;2023-12-20T08:23:22;13.98;;;6.22;;
32323;SDS011;25666;44.350;9.222;2023-12-20T08:25:48;14.95;;;6.43;;
32323;SDS011;25666;44.350;9.222;2023-12-20T08:28:14;12.05;;;6.15;;
32323;SDS011;25666;44.350;9.222;2023-12-20T08:30:40;13.98;;;6.60;;
32323;SDS011;25666;44.350;9.222;2023-12-20T08:33:06;15.48;;;7.03;;
32323;SDS011;25666;44.350;9.222;2023-12-20T08:35:36;12.90;;;6.75;;
32323;SDS011;25666;44.350;9.222;2023-12-20T08:38:02;16.15;;;6.50;;
32323;SDS011;25666;44.350;9.222;2023-12-20T08:40:29;13.95;;;7.05;;
32323;SDS011;25666;44.350;9.222;2023-12-20T08:42:54;19.02;;;8.23;;
32323;SDS011;25666;44.350;9.222;2023-12-20T08:45:20;18.92;;;7.72;;
32323;SDS011;25666;44.350;9.222;2023-12-20T08:47:46;21.83;;;8.95;;
32323;SDS011;25666;44.350;9.222;2023-12-20T08:50:11;20.08;;;8.73;;
32323;SDS011;25666;44.350;9.222;2023-12-20T08:52:37;19.85;;;9.63;;
32323;SDS011;25666;44.350;9.222;2023-12-20T08:55:02;23.17;;;10.82;;
32323;SDS011;25666;44.350;9.222;2023-12-20T08:57:28;21.40;;;8.85;;
32323;SDS011;25666;44.350;9.222;2023-12-20T08:59:54;23.02;;;9.45;;
32323;SDS011;25666;44.350;9.222;2023-12-20T09:02:19;19.10;;;8.40;;
32323;SDS011;25666;44.350;9.222;2023-12-20T09:04:45;23.98;;;9.30;;
32323;SDS011;25666;44.350;9.222;2023-12-20T09:07:26;19.80;;;9.50;;
32323;SDS011;25666;44.350;9.222;2023-12-20T09:12:18;17.20;;;7.50;;
32323;SDS011;25666;44.350;9.222;2023-12-20T09:14:48;18.08;;;7.78;;
32323;SDS011;25666;44.350;9.222;2023-12-20T09:17:15;12.68;;;7.25;;
32323;SDS011;25666;44.350;9.222;2023-12-20T09:19:42;26.80;;;9.82;;
32323;SDS011;25666;44.350;9.222;2023-12-20T09:22:11;19.00;;;9.00;;
32323;SDS011;25666;44.350;9.222;2023-12-20T09:24:37;18.85;;;9.05;;
32323;SDS011;25666;44.350;9.222;2023-12-20T09:27:06;19.30;;;9.20;;
32323;SDS011;25666;44.350;9.222;2023-12-20T09:29:32;23.55;;;9.13;;
32323;SDS011;25666;44.350;9.222;2023-12-20T09:31:57;22.85;;;11.38;;
32323;SDS011;25666;44.350;9.222;2023-12-20T09:34:23;27.13;;;10.30;;
32323;SDS011;25666;44.350;9.222;2023-12-20T09:36:50;28.30;;;10.20;;
32323;SDS011;25666;44.350;9.222;2023-12-20T09:39:17;26.08;;;12.00;;
32323;SDS011;25666;44.350;9.222;2023-12-20T09:42:06;29.50;;;11.75;;
32323;SDS011;25666;44.350;9.222;2023-12-20T09:44:32;27.42;;;11.32;;
32323;SDS011;25666;44.350;9.222;2023-12-20T09:47:02;33.33;;;13.05;;
32323;SDS011;25666;44.350;9.222;2023-12-20T09:49:29;28.65;;;11.93;;
32323;SDS011;25666;44.350;9.222;2023-12-20T09:51:55;23.83;;;11.02;;
32323;SDS011;25666;44.350;9.222;2023-12-20T09:54:22;18.42;;;9.75;;
32323;SDS011;25666;44.350;9.222;2023-12-20T09:56:48;28.95;;;13.90;;
32323;SDS011;25666;44.350;9.222;2023-12-20T09:59:14;45.90;;;19.55;;
32323;SDS011;25666;44.350;9.222;2023-12-20T10:01:41;43.55;;;17.52;;
32323;SDS011;25666;44.350;9.222;2023-12-20T10:04:10;45.70;;;16.05;;
32323;SDS011;25666;44.350;9.222;2023-12-20T10:06:44;35.43;;;13.97;;
32323;SDS011;25666;44.350;9.222;2023-12-20T10:09:10;27.48;;;14.25;;
32323;SDS011;25666;44.350;9.222;2023-12-20T10:11:37;25.33;;;12.68;;
32323;SDS011;25666;44.350;9.222;2023-12-20T10:14:04;30.00;;;12.60;;
32323;SDS011;25666;44.350;9.222;2023-12-20T10:16:30;30.75;;;12.60;;
32323;SDS011;25666;44.350;9.222;2023-12-20T10:18:56;28.08;;;14.18;;
32323;SDS011;25666;44.350;9.222;2023-12-20T10:21:22;41.67;;;16.55;;
32323;SDS011;25666;44.350;9.222;2023-12-20T10:23:48;74.15;;;23.85;;
32323;SDS011;25666;44.350;9.222;2023-12-20T10:26:25;59.72;;;22.98;;
32323;SDS011;25666;44.350;9.222;2023-12-20T10:28:55;51.90;;;20.17;;
32323;SDS011;25666;44.350;9.222;2023-12-20T10:31:31;46.22;;;21.35;;
32323;SDS011;25666;44.350;9.222;2023-12-20T10:33:59;43.80;;;17.85;;
32323;SDS011;25666;44.350;9.222;2023-12-20T10:36:26;44.08;;;18.02;;
32323;SDS011;25666;44.350;9.222;2023-12-20T10:38:52;47.72;;;19.77;;
32323;SDS011;25666;44.350;9.222;2023-12-20T10:41:20;85.70;;;27.83;;
32323;SDS011;25666;44.350;9.222;2023-12-20T10:43:54;57.10;;;24.58;;
32323;SDS011;25666;44.350;9.222;2023-12-20T10:46:22;65.40;;;26.80;;
32323;SDS011;25666;44.350;9.222;2023-12-20T10:48:48;63.92;;;26.70;;
32323;SDS011;25666;44.350;9.222;2023-12-20T10:51:17;75.82;;;27.33;;
32323;SDS011;25666;44.350;9.222;2023-12-20T10:53:48;63.63;;;26.02;;
32323;SDS011;25666;44.350;9.222;2023-12-20T10:56:15;73.07;;;26.73;;
32323;SDS011;25666;44.350;9.222;2023-12-20T11:01:13;67.63;;;28.23;;
32323;SDS011;25666;44.350;9.222;2023-12-20T11:03:42;76.05;;;26.80;;
32323;SDS011;25666;44.350;9.222;2023-12-20T11:09:28;72.85;;;24.88;;
32323;SDS011;25666;44.350;9.222;2023-12-20T11:12:07;69.38;;;24.65;;
32323;SDS011;25666;44.350;9.222;2023-12-20T11:14:42;65.45;;;24.52;;
32323;SDS011;25666;44.350;9.222;2023-12-20T11:17:32;56.15;;;21.92;;
32323;SDS011;25666;44.350;9.222;2023-12-20T11:22:27;54.85;;;21.25;;
32323;SDS011;25666;44.350;9.222;2023-12-20T11:25:06;45.40;;;19.00;;
32323;SDS011;25666;44.350;9.222;2023-12-20T11:27:36;54.78;;;20.67;;
32323;SDS011;25666;44.350;9.222;2023-12-20T11:30:06;46.97;;;17.52;;
32323;SDS011;25666;44.350;9.222;2023-12-20T11:32:34;41.25;;;17.52;;
32323;SDS011;25666;44.350;9.222;2023-12-20T11:35:16;34.08;;;16.58;;
32323;SDS011;25666;44.350;9.222;2023-12-20T11:37:43;48.10;;;17.30;;
32323;SDS011;25666;44.350;9.222;2023-12-20T11:40:13;36.75;;;14.98;;
32323;SDS011;25666;44.350;9.222;2023-12-20T11:42:41;29.25;;;14.27;;
32323;SDS011;25666;44.350;9.222;2023-12-20T11:45:09;28.92;;;12.75;;
32323;SDS011;25666;44.350;9.222;2023-12-20T11:47:35;38.55;;;13.82;;
32323;SDS011;25666;44.350;9.222;2023-12-20T11:50:02;28.50;;;13.02;;
32323;SDS011;25666;44.350;9.222;2023-12-20T11:52:29;37.05;;;13.05;;
32323;SDS011;25666;44.350;9.222;2023-12-20T11:54:55;22.90;;;10.07;;
32323;SDS011;25666;44.350;9.222;2023-12-20T11:57:20;24.77;;;12.05;;
32323;SDS011;25666;44.350;9.222;2023-12-20T11:59:46;27.27;;;11.88;;
32323;SDS011;25666;44.350;9.222;2023-12-20T12:02:12;31.35;;;11.77;;
32323;SDS011;25666;44.350;9.222;2023-12-20T12:04:37;27.70;;;12.00;;
32323;SDS011;25666;44.350;9.222;2023-12-20T12:07:03;27.80;;;11.48;;
32323;SDS011;25666;44.350;9.222;2023-12-20T12:09:29;29.35;;;12.25;;
32323;SDS011;25666;44.350;9.222;2023-12-20T12:11:55;27.60;;;11.80;;
32323;SDS011;25666;44.350;9.222;2023-12-20T12:14:24;25.45;;;12.30;;
32323;SDS011;25666;44.350;9.222;2023-12-20T12:16:50;24.10;;;10.23;;
32323;SDS011;25666;44.350;9.222;2023-12-20T12:19:22;35.10;;;11.65;;
32323;SDS011;25666;44.350;9.222;2023-12-20T12:22:31;22.55;;;9.93;;
32323;SDS011;25666;44.350;9.222;2023-12-20T12:24:48;20.20;;;9.43;;
32323;SDS011;25666;44.350;9.222;2023-12-20T12:27:17;26.52;;;8.90;;
32323;SDS011;25666;44.350;9.222;2023-12-20T12:30:00;17.45;;;8.45;;
32323;SDS011;25666;44.350;9.222;2023-12-20T12:32:32;18.23;;;8.63;;
32323;SDS011;25666;44.350;9.222;2023-12-20T12:35:04;18.45;;;8.32;;
32323;SDS011;25666;44.350;9.222;2023-12-20T12:37:33;20.33;;;7.93;;
32323;SDS011;25666;44.350;9.222;2023-12-20T12:39:59;15.90;;;7.45;;
32323;SDS011;25666;44.350;9.222;2023-12-20T12:44:56;12.82;;;6.82;;
32323;SDS011;25666;44.350;9.222;2023-12-20T12:47:22;15.50;;;7.55;;
32323;SDS011;25666;44.350;9.222;2023-12-20T12:49:49;18.70;;;6.88;;
32323;SDS011;25666;44.350;9.222;2023-12-20T12:52:17;13.50;;;6.25;;
32323;SDS011;25666;44.350;9.222;2023-12-20T12:54:42;14.52;;;7.10;;
32323;SDS011;25666;44.350;9.222;2023-12-20T12:57:10;21.15;;;7.40;;
32323;SDS011;25666;44.350;9.222;2023-12-20T12:59:36;13.82;;;6.18;;
32323;SDS011;25666;44.350;9.222;2023-12-20T13:02:02;19.05;;;6.18;;
32323;SDS011;25666;44.350;9.222;2023-12-20T13:04:27;16.42;;;6.25;;
32323;SDS011;25666;44.350;9.222;2023-12-20T13:06:53;15.55;;;5.70;;
32323;SDS011;25666;44.350;9.222;2023-12-20T13:09:19;13.68;;;6.28;;
32323;SDS011;25666;44.350;9.222;2023-12-20T13:11:44;10.57;;;5.82;;
32323;SDS011;25666;44.350;9.222;2023-12-20T13:14:10;13.90;;;5.85;;
32323;SDS011;25666;44.350;9.222;2023-12-20T13:16:40;14.63;;;6.45;;
32323;SDS011;25666;44.350;9.222;2023-12-20T13:19:06;10.45;;;5.70;;
32323;SDS011;25666;44.350;9.222;2023-12-20T13:21:32;15.13;;;6.22;;
32323;SDS011;25666;44.350;9.222;2023-12-20T13:23:57;14.88;;;6.38;;
32323;SDS011;25666;44.350;9.222;2023-12-20T13:26:23;15.68;;;6.38;;
32323;SDS011;25666;44.350;9.222;2023-12-20T13:28:48;28.00;;;6.70;;
32323;SDS011;25666;44.350;9.222;2023-12-20T13:31:14;19.60;;;6.30;;
32323;SDS011;25666;44.350;9.222;2023-12-20T13:33:39;14.15;;;5.47;;
32323;SDS011;25666;44.350;9.222;2023-12-20T13:36:05;14.30;;;5.82;;
32323;SDS011;25666;44.350;9.222;2023-12-20T13:38:31;13.70;;;6.45;;
32323;SDS011;25666;44.350;9.222;2023-12-20T13:40:57;14.00;;;6.15;;
32323;SDS011;25666;44.350;9.222;2023-12-20T13:43:24;14.27;;;6.65;;
32323;SDS011;25666;44.350;9.222;2023-12-20T13:45:50;8.00;;;5.32;;
32323;SDS011;25666;44.350;9.222;2023-12-20T13:48:15;16.15;;;6.10;;
32323;SDS011;25666;44.350;9.222;2023-12-20T13:50:41;16.23;;;7.25;;
32323;SDS011;25666;44.350;9.222;2023-12-20T13:53:07;11.93;;;6.38;;
32323;SDS011;25666;44.350;9.222;2023-12-20T13:55:32;22.20;;;7.50;;
32323;SDS011;25666;44.350;9.222;2023-12-20T13:57:58;16.83;;;7.03;;
32323;SDS011;25666;44.350;9.222;2023-12-20T14:00:23;13.40;;;6.35;;
32323;SDS011;25666;44.350;9.222;2023-12-20T14:02:49;12.45;;;6.53;;
32323;SDS011;25666;44.350;9.222;2023-12-20T14:05:15;12.43;;;6.63;;
32323;SDS011;25666;44.350;9.222;2023-12-20T14:07:45;12.32;;;6.93;;
32323;SDS011;25666;44.350;9.222;2023-12-20T14:10:11;13.98;;;7.03;;
32323;SDS011;25666;44.350;9.222;2023-12-20T14:12:40;16.80;;;6.72;;
32323;SDS011;25666;44.350;9.222;2023-12-20T14:15:06;15.13;;;6.78;;
32323;SDS011;25666;44.350;9.222;2023-12-20T14:17:36;14.23;;;7.30;;
32323;SDS011;25666;44.350;9.222;2023-12-20T14:20:03;8.98;;;6.22;;
32323;SDS011;25666;44.350;9.222;2023-12-20T14:22:33;13.30;;;7.43;;
32323;SDS011;25666;44.350;9.222;2023-12-20T14:24:59;11.45;;;5.80;;
32323;SDS011;25666;44.350;9.222;2023-12-20T14:27:24;18.73;;;6.38;;
32323;SDS011;25666;44.350;9.222;2023-12-20T14:29:55;17.63;;;6.90;;
32323;SDS011;25666;44.350;9.222;2023-12-20T14:32:21;15.20;;;6.85;;
32323;SDS011;25666;44.350;9.222;2023-12-20T14:34:47;12.32;;;5.30;;
32323;SDS011;25666;44.350;9.222;2023-12-20T14:37:12;12.70;;;6.03;;
32323;SDS011;25666;44.350;9.222;2023-12-20T14:39:38;10.88;;;6.15;;